sensor_id;sensor_type;location;lat;lon;timestamp;P1;durP1;ratioP1;P2;durP2;ratioP2
17398;SDS011;8817;48.170;8.592;2023-06-10T00:01:37;6.50;;;6.00;;
17398;SDS011;8817;48.170;8.592;2023-06-10T00:04:05;7.25;;;6.55;;
17398;SDS011;8817;48.170;8.592;2023-06-10T00:06:32;7.75;;;6.97;;
17398;SDS011;8817;48.170;8.592;2023-06-10T00:09:01;7.30;;;6.60;;
17398;SDS011;8817;48.170;8.592;2023-06-10T00:11:30;7.95;;;6.78;;
17398;SDS011;8817;48.170;8.592;2023-06-10T00:13:57;6.88;;;6.20;;
17398;SDS011;8817;48.170;8.592;2023-06-10T00:16:25;7.20;;;6.50;;
17398;SDS011;8817;48.170;8.592;2023-06-10T00:18:52;8.02;;;6.80;;
17398;SDS011;8817;48.170;8.592;2023-06-10T00:21:22;8.65;;;6.60;;
17398;SDS011;8817;48.170;8.592;2023-06-10T00:23:50;7.35;;;6.65;;
17398;SDS011;8817;48.170;8.592;2023-06-10T00:26:17;8.70;;;6.63;;
17398;SDS011;8817;48.170;8.592;2023-06-10T00:28:44;7.18;;;6.47;;
17398;SDS011;8817;48.170;8.592;2023-06-10T00:31:11;8.85;;;6.90;;
17398;SDS011;8817;48.170;8.592;2023-06-10T00:33:38;9.05;;;6.55;;
17398;SDS011;8817;48.170;8.592;2023-06-10T00:36:05;8.82;;;6.65;;
17398;SDS011;8817;48.170;8.592;2023-06-10T00:38:33;7.07;;;6.47;;
17398;SDS011;8817;48.170;8.592;2023-06-10T00:41:00;7.50;;;6.80;;
17398;SDS011;8817;48.170;8.592;2023-06-10T00:43:27;9.18;;;6.65;;
17398;SDS011;8817;48.170;8.592;2023-06-10T00:45:54;7.55;;;6.78;;
17398;SDS011;8817;48.170;8.592;2023-06-10T00:48:21;7.32;;;6.63;;
17398;SDS011;8817;48.170;8.592;2023-06-10T00:50:48;7.28;;;6.57;;
17398;SDS011;8817;48.170;8.592;2023-06-10T00:53:15;10.32;;;6.75;;
17398;SDS011;8817;48.170;8.592;2023-06-10T00:55:45;7.93;;;6.93;;
17398;SDS011;8817;48.170;8.592;2023-06-10T00:58:12;7.50;;;6.88;;
17398;SDS011;8817;48.170;8.592;2023-06-10T01:00:39;7.85;;;7.10;;
17398;SDS011;8817;48.170;8.592;2023-06-10T01:03:06;7.55;;;6.80;;
17398;SDS011;8817;48.170;8.592;2023-06-10T01:05:33;8.48;;;7.05;;
17398;SDS011;8817;48.170;8.592;2023-06-10T01:08:02;8.13;;;7.20;;
17398;SDS011;8817;48.170;8.592;2023-06-10T01:10:34;9.98;;;7.00;;
17398;SDS011;8817;48.170;8.592;2023-06-10T01:13:09;7.72;;;7.03;;
17398;SDS011;8817;48.170;8.592;2023-06-10T01:15:38;7.75;;;7.05;;
17398;SDS011;8817;48.170;8.592;2023-06-10T01:18:05;7.60;;;6.90;;
17398;SDS011;8817;48.170;8.592;2023-06-10T01:20:35;8.25;;;7.00;;
17398;SDS011;8817;48.170;8.592;2023-06-10T01:23:06;7.70;;;7.00;;
17398;SDS011;8817;48.170;8.592;2023-06-10T01:25:37;7.68;;;6.97;;
17398;SDS011;8817;48.170;8.592;2023-06-10T01:28:07;7.43;;;6.72;;
17398;SDS011;8817;48.170;8.592;2023-06-10T01:30:41;7.72;;;6.82;;
17398;SDS011;8817;48.170;8.592;2023-06-10T01:33:12;8.82;;;7.05;;
17398;SDS011;8817;48.170;8.592;2023-06-10T01:35:42;7.55;;;6.72;;
17398;SDS011;8817;48.170;8.592;2023-06-10T01:38:12;8.02;;;6.90;;
17398;SDS011;8817;48.170;8.592;2023-06-10T01:40:41;7.95;;;7.15;;
17398;SDS011;8817;48.170;8.592;2023-06-10T01:43:08;7.32;;;6.63;;
17398;SDS011;8817;48.170;8.592;2023-06-10T01:45:35;8.30;;;6.70;;
17398;SDS011;8817;48.170;8.592;2023-06-10T01:48:02;7.40;;;6.63;;
17398;SDS011;8817;48.170;8.592;2023-06-10T01:50:30;8.52;;;6.93;;
17398;SDS011;8817;48.170;8.592;2023-06-10T01:52:57;9.23;;;6.93;;
17398;SDS011;8817;48.170;8.592;2023-06-10T01:55:27;8.43;;;7.30;;
17398;SDS011;8817;48.170;8.592;2023-06-10T01:57:54;12.07;;;7.20;;
17398;SDS011;8817;48.170;8.592;2023-06-10T02:00:21;7.72;;;6.93;;
17398;SDS011;8817;48.170;8.592;2023-06-10T02:02:48;8.32;;;6.93;;
17398;SDS011;8817;48.170;8.592;2023-06-10T02:05:15;10.02;;;7.25;;
17398;SDS011;8817;48.170;8.592;2023-06-10T02:07:42;9.13;;;7.43;;
17398;SDS011;8817;48.170;8.592;2023-06-10T02:10:09;11.73;;;7.70;;
17398;SDS011;8817;48.170;8.592;2023-06-10T02:12:37;8.23;;;7.30;;
17398;SDS011;8817;48.170;8.592;2023-06-10T02:15:04;8.00;;;7.30;;
17398;SDS011;8817;48.170;8.592;2023-06-10T02:17:31;7.45;;;6.75;;
17398;SDS011;8817;48.170;8.592;2023-06-10T02:19:58;8.13;;;7.32;;
17398;SDS011;8817;48.170;8.592;2023-06-10T02:22:32;9.20;;;7.45;;
17398;SDS011;8817;48.170;8.592;2023-06-10T02:24:59;9.15;;;7.38;;
17398;SDS011;8817;48.170;8.592;2023-06-10T02:27:26;7.78;;;6.85;;
17398;SDS011;8817;48.170;8.592;2023-06-10T02:29:54;8.18;;;7.28;;
17398;SDS011;8817;48.170;8.592;2023-06-10T02:32:21;8.18;;;7.15;;
17398;SDS011;8817;48.170;8.592;2023-06-10T02:34:48;8.02;;;7.10;;
17398;SDS011;8817;48.170;8.592;2023-06-10T02:37:16;8.02;;;7.22;;
17398;SDS011;8817;48.170;8.592;2023-06-10T02:39:43;8.55;;;7.45;;
17398;SDS011;8817;48.170;8.592;2023-06-10T02:42:10;8.52;;;7.55;;
17398;SDS011;8817;48.170;8.592;2023-06-10T02:44:38;8.60;;;7.35;;
17398;SDS011;8817;48.170;8.592;2023-06-10T02:47:06;7.95;;;7.15;;
17398;SDS011;8817;48.170;8.592;2023-06-10T02:49:33;7.70;;;6.97;;
17398;SDS011;8817;48.170;8.592;2023-06-10T02:52:00;8.48;;;7.45;;
17398;SDS011;8817;48.170;8.592;2023-06-10T02:54:27;8.10;;;7.30;;
17398;SDS011;8817;48.170;8.592;2023-06-10T02:56:54;8.90;;;7.43;;
17398;SDS011;8817;48.170;8.592;2023-06-10T02:59:21;8.40;;;7.10;;
17398;SDS011;8817;48.170;8.592;2023-06-10T03:01:48;8.15;;;7.22;;
17398;SDS011;8817;48.170;8.592;2023-06-10T03:04:16;8.20;;;7.40;;
17398;SDS011;8817;48.170;8.592;2023-06-10T03:06:43;8.50;;;7.32;;
17398;SDS011;8817;48.170;8.592;2023-06-10T03:09:12;8.30;;;7.50;;
17398;SDS011;8817;48.170;8.592;2023-06-10T03:11:39;8.35;;;7.45;;
17398;SDS011;8817;48.170;8.592;2023-06-10T03:14:06;8.00;;;7.20;;
17398;SDS011;8817;48.170;8.592;2023-06-10T03:16:33;8.25;;;7.45;;
17398;SDS011;8817;48.170;8.592;2023-06-10T03:19:00;9.20;;;7.55;;
17398;SDS011;8817;48.170;8.592;2023-06-10T03:21:28;8.48;;;7.60;;
17398;SDS011;8817;48.170;8.592;2023-06-10T03:23:55;10.38;;;7.70;;
17398;SDS011;8817;48.170;8.592;2023-06-10T03:26:22;11.38;;;7.90;;
17398;SDS011;8817;48.170;8.592;2023-06-10T03:28:49;9.07;;;7.60;;
17398;SDS011;8817;48.170;8.592;2023-06-10T03:31:16;8.85;;;7.57;;
17398;SDS011;8817;48.170;8.592;2023-06-10T03:33:43;7.93;;;7.20;;
17398;SDS011;8817;48.170;8.592;2023-06-10T03:36:10;8.55;;;7.53;;
17398;SDS011;8817;48.170;8.592;2023-06-10T03:38:39;9.55;;;7.53;;
17398;SDS011;8817;48.170;8.592;2023-06-10T03:41:06;8.00;;;7.20;;
17398;SDS011;8817;48.170;8.592;2023-06-10T03:43:33;8.32;;;7.40;;
17398;SDS011;8817;48.170;8.592;2023-06-10T03:45:59;8.00;;;7.20;;
17398;SDS011;8817;48.170;8.592;2023-06-10T03:48:26;10.60;;;7.40;;
17398;SDS011;8817;48.170;8.592;2023-06-10T03:50:53;8.27;;;7.40;;
17398;SDS011;8817;48.170;8.592;2023-06-10T03:53:20;8.70;;;7.80;;
17398;SDS011;8817;48.170;8.592;2023-06-10T03:55:49;8.23;;;7.43;;
17398;SDS011;8817;48.170;8.592;2023-06-10T03:58:16;9.02;;;7.45;;
17398;SDS011;8817;48.170;8.592;2023-06-10T04:00:43;9.55;;;7.40;;
17398;SDS011;8817;48.170;8.592;2023-06-10T04:03:10;8.07;;;7.35;;
17398;SDS011;8817;48.170;8.592;2023-06-10T04:05:39;9.38;;;7.68;;
17398;SDS011;8817;48.170;8.592;2023-06-10T04:08:07;9.07;;;7.32;;
17398;SDS011;8817;48.170;8.592;2023-06-10T04:10:34;8.82;;;7.93;;
17398;SDS011;8817;48.170;8.592;2023-06-10T04:13:02;7.88;;;7.18;;
17398;SDS011;8817;48.170;8.592;2023-06-10T04:15:30;8.23;;;7.40;;
17398;SDS011;8817;48.170;8.592;2023-06-10T04:17:58;9.10;;;7.70;;
17398;SDS011;8817;48.170;8.592;2023-06-10T04:20:26;8.48;;;7.60;;
17398;SDS011;8817;48.170;8.592;2023-06-10T04:22:53;8.07;;;7.30;;
17398;SDS011;8817;48.170;8.592;2023-06-10T04:25:20;9.13;;;7.63;;
17398;SDS011;8817;48.170;8.592;2023-06-10T04:27:47;8.52;;;7.63;;
17398;SDS011;8817;48.170;8.592;2023-06-10T04:30:16;8.73;;;7.78;;
17398;SDS011;8817;48.170;8.592;2023-06-10T04:32:43;8.52;;;7.57;;
17398;SDS011;8817;48.170;8.592;2023-06-10T04:35:11;8.20;;;7.40;;
17398;SDS011;8817;48.170;8.592;2023-06-10T04:37:39;8.98;;;7.85;;
17398;SDS011;8817;48.170;8.592;2023-06-10T04:40:06;9.10;;;7.63;;
17398;SDS011;8817;48.170;8.592;2023-06-10T04:42:34;16.20;;;7.93;;
17398;SDS011;8817;48.170;8.592;2023-06-10T04:45:01;9.23;;;7.65;;
17398;SDS011;8817;48.170;8.592;2023-06-10T04:47:30;10.88;;;7.65;;
17398;SDS011;8817;48.170;8.592;2023-06-10T04:49:58;8.90;;;7.82;;
17398;SDS011;8817;48.170;8.592;2023-06-10T04:52:25;8.52;;;7.32;;
17398;SDS011;8817;48.170;8.592;2023-06-10T04:54:52;8.98;;;7.97;;
17398;SDS011;8817;48.170;8.592;2023-06-10T04:57:20;9.07;;;8.10;;
17398;SDS011;8817;48.170;8.592;2023-06-10T04:59:47;8.90;;;8.00;;
17398;SDS011;8817;48.170;8.592;2023-06-10T05:02:14;10.02;;;8.10;;
17398;SDS011;8817;48.170;8.592;2023-06-10T05:04:42;8.60;;;7.70;;
17398;SDS011;8817;48.170;8.592;2023-06-10T05:07:09;8.25;;;7.38;;
17398;SDS011;8817;48.170;8.592;2023-06-10T05:09:36;9.95;;;7.85;;
17398;SDS011;8817;48.170;8.592;2023-06-10T05:12:04;13.48;;;7.90;;
17398;SDS011;8817;48.170;8.592;2023-06-10T05:14:31;7.90;;;7.20;;
17398;SDS011;8817;48.170;8.592;2023-06-10T05:16:58;8.50;;;7.60;;
17398;SDS011;8817;48.170;8.592;2023-06-10T05:19:25;9.50;;;7.70;;
17398;SDS011;8817;48.170;8.592;2023-06-10T05:21:54;8.32;;;7.55;;
17398;SDS011;8817;48.170;8.592;2023-06-10T05:24:21;8.63;;;7.45;;
17398;SDS011;8817;48.170;8.592;2023-06-10T05:26:48;8.20;;;7.38;;
17398;SDS011;8817;48.170;8.592;2023-06-10T05:29:15;8.77;;;7.85;;
17398;SDS011;8817;48.170;8.592;2023-06-10T05:31:42;9.02;;;7.90;;
17398;SDS011;8817;48.170;8.592;2023-06-10T05:34:09;11.32;;;7.50;;
17398;SDS011;8817;48.170;8.592;2023-06-10T05:36:36;10.65;;;7.28;;
17398;SDS011;8817;48.170;8.592;2023-06-10T05:39:04;10.48;;;7.63;;
17398;SDS011;8817;48.170;8.592;2023-06-10T05:41:31;8.10;;;7.30;;
17398;SDS011;8817;48.170;8.592;2023-06-10T05:43:58;9.52;;;7.85;;
17398;SDS011;8817;48.170;8.592;2023-06-10T05:46:25;8.70;;;7.65;;
17398;SDS011;8817;48.170;8.592;2023-06-10T05:48:52;8.95;;;7.40;;
17398;SDS011;8817;48.170;8.592;2023-06-10T05:51:19;8.07;;;7.28;;
17398;SDS011;8817;48.170;8.592;2023-06-10T05:53:46;8.13;;;7.32;;
17398;SDS011;8817;48.170;8.592;2023-06-10T05:56:14;8.40;;;7.53;;
17398;SDS011;8817;48.170;8.592;2023-06-10T05:58:41;8.55;;;7.35;;
17398;SDS011;8817;48.170;8.592;2023-06-10T06:01:08;10.13;;;7.55;;
17398;SDS011;8817;48.170;8.592;2023-06-10T06:03:35;8.20;;;7.40;;
17398;SDS011;8817;48.170;8.592;2023-06-10T06:06:02;8.18;;;7.35;;
17398;SDS011;8817;48.170;8.592;2023-06-10T06:08:29;8.63;;;7.60;;
17398;SDS011;8817;48.170;8.592;2023-06-10T06:10:56;8.32;;;7.30;;
17398;SDS011;8817;48.170;8.592;2023-06-10T06:13:25;9.02;;;7.63;;
17398;SDS011;8817;48.170;8.592;2023-06-10T06:15:52;8.70;;;7.80;;
17398;SDS011;8817;48.170;8.592;2023-06-10T06:18:19;8.05;;;7.25;;
17398;SDS011;8817;48.170;8.592;2023-06-10T06:20:46;10.45;;;7.47;;
17398;SDS011;8817;48.170;8.592;2023-06-10T06:23:13;9.15;;;7.40;;
17398;SDS011;8817;48.170;8.592;2023-06-10T06:25:40;7.80;;;7.00;;
17398;SDS011;8817;48.170;8.592;2023-06-10T06:28:07;8.10;;;7.32;;
17398;SDS011;8817;48.170;8.592;2023-06-10T06:30:36;7.90;;;7.10;;
17398;SDS011;8817;48.170;8.592;2023-06-10T06:33:03;8.43;;;7.13;;
17398;SDS011;8817;48.170;8.592;2023-06-10T06:35:30;8.10;;;7.30;;
17398;SDS011;8817;48.170;8.592;2023-06-10T06:37:59;7.90;;;7.13;;
17398;SDS011;8817;48.170;8.592;2023-06-10T06:40:26;7.35;;;6.72;;
17398;SDS011;8817;48.170;8.592;2023-06-10T06:42:53;7.95;;;6.97;;
17398;SDS011;8817;48.170;8.592;2023-06-10T06:45:20;8.57;;;6.90;;
17398;SDS011;8817;48.170;8.592;2023-06-10T06:47:48;7.97;;;7.13;;
17398;SDS011;8817;48.170;8.592;2023-06-10T06:50:15;7.95;;;7.15;;
17398;SDS011;8817;48.170;8.592;2023-06-10T06:52:42;7.75;;;7.05;;
17398;SDS011;8817;48.170;8.592;2023-06-10T06:55:09;7.93;;;7.13;;
17398;SDS011;8817;48.170;8.592;2023-06-10T06:57:36;9.30;;;6.85;;
17398;SDS011;8817;48.170;8.592;2023-06-10T07:00:04;9.52;;;7.00;;
17398;SDS011;8817;48.170;8.592;2023-06-10T07:02:33;7.80;;;7.00;;
17398;SDS011;8817;48.170;8.592;2023-06-10T07:05:01;8.10;;;6.97;;
17398;SDS011;8817;48.170;8.592;2023-06-10T07:07:29;7.78;;;6.97;;
17398;SDS011;8817;48.170;8.592;2023-06-10T07:09:56;7.32;;;6.65;;
17398;SDS011;8817;48.170;8.592;2023-06-10T07:12:23;7.18;;;6.50;;
17398;SDS011;8817;48.170;8.592;2023-06-10T07:14:50;8.35;;;6.53;;
17398;SDS011;8817;48.170;8.592;2023-06-10T07:17:17;11.07;;;7.10;;
17398;SDS011;8817;48.170;8.592;2023-06-10T07:19:44;7.60;;;6.90;;
17398;SDS011;8817;48.170;8.592;2023-06-10T07:22:13;7.80;;;7.00;;
17398;SDS011;8817;48.170;8.592;2023-06-10T07:24:41;9.00;;;7.00;;
17398;SDS011;8817;48.170;8.592;2023-06-10T07:27:08;8.10;;;7.30;;
17398;SDS011;8817;48.170;8.592;2023-06-10T07:29:35;7.82;;;7.00;;
17398;SDS011;8817;48.170;8.592;2023-06-10T07:32:02;7.60;;;6.80;;
17398;SDS011;8817;48.170;8.592;2023-06-10T07:34:30;7.18;;;6.50;;
17398;SDS011;8817;48.170;8.592;2023-06-10T07:36:57;9.25;;;7.20;;
17398;SDS011;8817;48.170;8.592;2023-06-10T07:39:25;8.90;;;6.95;;
17398;SDS011;8817;48.170;8.592;2023-06-10T07:41:52;8.43;;;6.70;;
17398;SDS011;8817;48.170;8.592;2023-06-10T07:44:22;7.60;;;6.90;;
17398;SDS011;8817;48.170;8.592;2023-06-10T07:46:49;7.75;;;6.88;;
17398;SDS011;8817;48.170;8.592;2023-06-10T07:49:16;7.88;;;7.07;;
17398;SDS011;8817;48.170;8.592;2023-06-10T07:51:43;7.20;;;6.60;;
17398;SDS011;8817;48.170;8.592;2023-06-10T07:54:10;7.57;;;6.88;;
17398;SDS011;8817;48.170;8.592;2023-06-10T07:56:39;7.57;;;6.88;;
17398;SDS011;8817;48.170;8.592;2023-06-10T07:59:06;7.63;;;6.82;;
17398;SDS011;8817;48.170;8.592;2023-06-10T08:01:33;7.32;;;6.60;;
17398;SDS011;8817;48.170;8.592;2023-06-10T08:04:03;7.38;;;6.68;;
17398;SDS011;8817;48.170;8.592;2023-06-10T08:06:30;7.47;;;6.30;;
17398;SDS011;8817;48.170;8.592;2023-06-10T08:08:57;6.85;;;6.22;;
17398;SDS011;8817;48.170;8.592;2023-06-10T08:11:25;7.80;;;6.78;;
17398;SDS011;8817;48.170;8.592;2023-06-10T08:13:54;7.38;;;6.45;;
17398;SDS011;8817;48.170;8.592;2023-06-10T08:16:22;7.15;;;6.28;;
17398;SDS011;8817;48.170;8.592;2023-06-10T08:18:48;7.15;;;6.55;;
17398;SDS011;8817;48.170;8.592;2023-06-10T08:21:16;6.90;;;6.30;;
17398;SDS011;8817;48.170;8.592;2023-06-10T08:23:43;6.93;;;6.32;;
17398;SDS011;8817;48.170;8.592;2023-06-10T08:26:10;12.50;;;6.60;;
17398;SDS011;8817;48.170;8.592;2023-06-10T08:28:37;7.25;;;6.57;;
17398;SDS011;8817;48.170;8.592;2023-06-10T08:31:05;6.85;;;6.28;;
17398;SDS011;8817;48.170;8.592;2023-06-10T08:33:32;6.90;;;6.30;;
17398;SDS011;8817;48.170;8.592;2023-06-10T08:35:59;6.93;;;6.22;;
17398;SDS011;8817;48.170;8.592;2023-06-10T08:38:26;6.90;;;6.20;;
17398;SDS011;8817;48.170;8.592;2023-06-10T08:40:54;7.20;;;6.50;;
17398;SDS011;8817;48.170;8.592;2023-06-10T08:43:27;7.25;;;6.55;;
17398;SDS011;8817;48.170;8.592;2023-06-10T08:46:00;7.10;;;6.40;;
17398;SDS011;8817;48.170;8.592;2023-06-10T08:48:30;7.18;;;6.47;;
17398;SDS011;8817;48.170;8.592;2023-06-10T08:51:00;9.02;;;6.65;;
17398;SDS011;8817;48.170;8.592;2023-06-10T08:53:29;7.65;;;6.90;;
17398;SDS011;8817;48.170;8.592;2023-06-10T08:56:00;7.18;;;6.50;;
17398;SDS011;8817;48.170;8.592;2023-06-10T08:58:29;7.10;;;6.43;;
17398;SDS011;8817;48.170;8.592;2023-06-10T09:00:58;7.18;;;6.47;;
17398;SDS011;8817;48.170;8.592;2023-06-10T09:03:25;11.90;;;7.43;;
17398;SDS011;8817;48.170;8.592;2023-06-10T09:05:53;7.70;;;7.00;;
17398;SDS011;8817;48.170;8.592;2023-06-10T09:08:22;8.55;;;6.90;;
17398;SDS011;8817;48.170;8.592;2023-06-10T09:10:52;9.02;;;6.70;;
17398;SDS011;8817;48.170;8.592;2023-06-10T09:13:19;7.18;;;6.57;;
17398;SDS011;8817;48.170;8.592;2023-06-10T09:15:46;7.40;;;6.57;;
17398;SDS011;8817;48.170;8.592;2023-06-10T09:18:14;7.43;;;6.72;;
17398;SDS011;8817;48.170;8.592;2023-06-10T09:20:41;7.15;;;6.50;;
17398;SDS011;8817;48.170;8.592;2023-06-10T09:23:10;7.82;;;7.03;;
17398;SDS011;8817;48.170;8.592;2023-06-10T09:25:38;7.22;;;6.63;;
17398;SDS011;8817;48.170;8.592;2023-06-10T09:28:12;10.05;;;7.13;;
17398;SDS011;8817;48.170;8.592;2023-06-10T09:30:40;8.40;;;7.00;;
17398;SDS011;8817;48.170;8.592;2023-06-10T09:33:09;8.68;;;6.97;;
17398;SDS011;8817;48.170;8.592;2023-06-10T09:35:45;8.10;;;7.30;;
17398;SDS011;8817;48.170;8.592;2023-06-10T09:38:14;7.50;;;6.80;;
17398;SDS011;8817;48.170;8.592;2023-06-10T09:40:49;7.03;;;6.43;;
17398;SDS011;8817;48.170;8.592;2023-06-10T09:43:17;7.57;;;6.88;;
17398;SDS011;8817;48.170;8.592;2023-06-10T09:45:44;7.53;;;6.82;;
17398;SDS011;8817;48.170;8.592;2023-06-10T09:48:13;7.38;;;6.75;;
17398;SDS011;8817;48.170;8.592;2023-06-10T09:50:41;7.10;;;6.50;;
17398;SDS011;8817;48.170;8.592;2023-06-10T09:53:10;7.22;;;6.63;;
17398;SDS011;8817;48.170;8.592;2023-06-10T09:55:39;9.70;;;6.70;;
17398;SDS011;8817;48.170;8.592;2023-06-10T09:58:07;7.55;;;6.90;;
17398;SDS011;8817;48.170;8.592;2023-06-10T10:00:34;7.00;;;6.30;;
17398;SDS011;8817;48.170;8.592;2023-06-10T10:03:02;7.03;;;6.43;;
17398;SDS011;8817;48.170;8.592;2023-06-10T10:05:29;8.10;;;7.30;;
17398;SDS011;8817;48.170;8.592;2023-06-10T10:07:56;9.68;;;6.68;;
17398;SDS011;8817;48.170;8.592;2023-06-10T10:10:23;7.20;;;6.50;;
17398;SDS011;8817;48.170;8.592;2023-06-10T10:12:52;7.60;;;6.90;;
17398;SDS011;8817;48.170;8.592;2023-06-10T10:15:22;7.50;;;6.80;;
17398;SDS011;8817;48.170;8.592;2023-06-10T10:17:52;7.72;;;6.95;;
17398;SDS011;8817;48.170;8.592;2023-06-10T10:20:24;7.28;;;6.68;;
17398;SDS011;8817;48.170;8.592;2023-06-10T10:22:56;6.97;;;6.38;;
17398;SDS011;8817;48.170;8.592;2023-06-10T10:25:25;7.35;;;6.75;;
17398;SDS011;8817;48.170;8.592;2023-06-10T10:27:56;9.07;;;6.65;;
17398;SDS011;8817;48.170;8.592;2023-06-10T10:30:28;18.02;;;6.80;;
17398;SDS011;8817;48.170;8.592;2023-06-10T10:33:04;8.18;;;6.32;;
17398;SDS011;8817;48.170;8.592;2023-06-10T10:35:34;7.25;;;6.55;;
17398;SDS011;8817;48.170;8.592;2023-06-10T10:38:03;8.15;;;6.30;;
17398;SDS011;8817;48.170;8.592;2023-06-10T10:40:32;9.57;;;6.47;;
17398;SDS011;8817;48.170;8.592;2023-06-10T10:43:01;7.70;;;6.38;;
17398;SDS011;8817;48.170;8.592;2023-06-10T10:45:29;6.95;;;6.25;;
17398;SDS011;8817;48.170;8.592;2023-06-10T10:47:56;6.88;;;6.28;;
17398;SDS011;8817;48.170;8.592;2023-06-10T10:50:23;7.05;;;6.45;;
17398;SDS011;8817;48.170;8.592;2023-06-10T10:52:56;6.80;;;6.18;;
17398;SDS011;8817;48.170;8.592;2023-06-10T10:55:26;7.45;;;6.53;;
17398;SDS011;8817;48.170;8.592;2023-06-10T10:57:54;6.78;;;6.07;;
17398;SDS011;8817;48.170;8.592;2023-06-10T11:00:30;7.05;;;6.20;;
17398;SDS011;8817;48.170;8.592;2023-06-10T11:02:59;6.97;;;6.38;;
17398;SDS011;8817;48.170;8.592;2023-06-10T11:05:32;6.50;;;5.95;;
17398;SDS011;8817;48.170;8.592;2023-06-10T11:08:04;6.60;;;6.00;;
17398;SDS011;8817;48.170;8.592;2023-06-10T11:10:31;7.95;;;6.35;;
17398;SDS011;8817;48.170;8.592;2023-06-10T11:12:59;6.70;;;6.20;;
17398;SDS011;8817;48.170;8.592;2023-06-10T11:15:33;7.28;;;6.68;;
17398;SDS011;8817;48.170;8.592;2023-06-10T11:18:08;7.05;;;6.30;;
17398;SDS011;8817;48.170;8.592;2023-06-10T11:20:43;6.10;;;5.70;;
17398;SDS011;8817;48.170;8.592;2023-06-10T11:23:32;6.20;;;5.70;;
17398;SDS011;8817;48.170;8.592;2023-06-10T11:26:19;5.95;;;5.53;;
17398;SDS011;8817;48.170;8.592;2023-06-10T11:29:01;6.10;;;5.60;;
17398;SDS011;8817;48.170;8.592;2023-06-10T11:31:38;6.45;;;5.95;;
17398;SDS011;8817;48.170;8.592;2023-06-10T11:34:07;5.90;;;5.40;;
17398;SDS011;8817;48.170;8.592;2023-06-10T11:36:36;5.70;;;5.30;;
17398;SDS011;8817;48.170;8.592;2023-06-10T11:39:05;5.80;;;5.40;;
17398;SDS011;8817;48.170;8.592;2023-06-10T11:41:33;5.82;;;5.43;;
17398;SDS011;8817;48.170;8.592;2023-06-10T11:44:01;5.63;;;5.18;;
17398;SDS011;8817;48.170;8.592;2023-06-10T11:46:29;5.55;;;5.15;;
17398;SDS011;8817;48.170;8.592;2023-06-10T11:48:58;5.70;;;5.30;;
17398;SDS011;8817;48.170;8.592;2023-06-10T11:51:27;5.43;;;4.93;;
17398;SDS011;8817;48.170;8.592;2023-06-10T11:53:56;5.05;;;4.70;;
17398;SDS011;8817;48.170;8.592;2023-06-10T11:56:23;55.10;;;8.50;;
17398;SDS011;8817;48.170;8.592;2023-06-10T11:58:52;62.28;;;7.93;;
17398;SDS011;8817;48.170;8.592;2023-06-10T12:01:20;5.40;;;5.03;;
17398;SDS011;8817;48.170;8.592;2023-06-10T12:03:50;4.90;;;4.60;;
17398;SDS011;8817;48.170;8.592;2023-06-10T12:06:24;7.57;;;5.25;;
17398;SDS011;8817;48.170;8.592;2023-06-10T12:08:51;5.00;;;4.70;;
17398;SDS011;8817;48.170;8.592;2023-06-10T12:11:19;5.20;;;4.90;;
17398;SDS011;8817;48.170;8.592;2023-06-10T12:13:48;5.40;;;5.00;;
17398;SDS011;8817;48.170;8.592;2023-06-10T12:16:16;5.20;;;4.90;;
17398;SDS011;8817;48.170;8.592;2023-06-10T12:18:44;5.50;;;5.10;;
17398;SDS011;8817;48.170;8.592;2023-06-10T12:21:19;5.22;;;4.78;;
17398;SDS011;8817;48.170;8.592;2023-06-10T12:24:02;5.40;;;4.97;;
17398;SDS011;8817;48.170;8.592;2023-06-10T12:26:34;5.25;;;4.85;;
17398;SDS011;8817;48.170;8.592;2023-06-10T12:29:02;5.40;;;5.10;;
17398;SDS011;8817;48.170;8.592;2023-06-10T12:31:51;5.13;;;4.80;;
17398;SDS011;8817;48.170;8.592;2023-06-10T12:34:27;4.97;;;4.75;;
17398;SDS011;8817;48.170;8.592;2023-06-10T12:37:09;5.25;;;4.85;;
17398;SDS011;8817;48.170;8.592;2023-06-10T12:39:38;4.85;;;4.55;;
17398;SDS011;8817;48.170;8.592;2023-06-10T12:42:06;5.07;;;4.75;;
17398;SDS011;8817;48.170;8.592;2023-06-10T12:44:35;4.97;;;4.68;;
17398;SDS011;8817;48.170;8.592;2023-06-10T12:47:08;4.88;;;4.57;;
17398;SDS011;8817;48.170;8.592;2023-06-10T12:49:37;4.88;;;4.60;;
17398;SDS011;8817;48.170;8.592;2023-06-10T12:52:04;4.90;;;4.65;;
17398;SDS011;8817;48.170;8.592;2023-06-10T12:54:33;4.93;;;4.63;;
17398;SDS011;8817;48.170;8.592;2023-06-10T12:57:01;4.97;;;4.68;;
17398;SDS011;8817;48.170;8.592;2023-06-10T12:59:28;4.82;;;4.55;;
17398;SDS011;8817;48.170;8.592;2023-06-10T13:01:56;4.70;;;4.50;;
17398;SDS011;8817;48.170;8.592;2023-06-10T13:04:23;4.88;;;4.57;;
17398;SDS011;8817;48.170;8.592;2023-06-10T13:06:51;4.88;;;4.57;;
17398;SDS011;8817;48.170;8.592;2023-06-10T13:09:19;4.93;;;4.70;;
17398;SDS011;8817;48.170;8.592;2023-06-10T13:11:46;5.20;;;4.80;;
17398;SDS011;8817;48.170;8.592;2023-06-10T13:14:13;5.18;;;4.78;;
17398;SDS011;8817;48.170;8.592;2023-06-10T13:16:40;4.93;;;4.63;;
17398;SDS011;8817;48.170;8.592;2023-06-10T13:19:08;5.00;;;4.70;;
17398;SDS011;8817;48.170;8.592;2023-06-10T13:21:36;5.32;;;4.93;;
17398;SDS011;8817;48.170;8.592;2023-06-10T13:24:03;5.00;;;4.70;;
17398;SDS011;8817;48.170;8.592;2023-06-10T13:26:32;4.65;;;4.45;;
17398;SDS011;8817;48.170;8.592;2023-06-10T13:28:59;4.75;;;4.47;;
17398;SDS011;8817;48.170;8.592;2023-06-10T13:31:26;4.82;;;4.53;;
17398;SDS011;8817;48.170;8.592;2023-06-10T13:33:52;4.68;;;4.38;;
17398;SDS011;8817;48.170;8.592;2023-06-10T13:36:19;4.75;;;4.47;;
17398;SDS011;8817;48.170;8.592;2023-06-10T13:38:46;5.05;;;4.65;;
17398;SDS011;8817;48.170;8.592;2023-06-10T13:41:13;5.00;;;4.70;;
17398;SDS011;8817;48.170;8.592;2023-06-10T13:43:42;5.38;;;5.00;;
17398;SDS011;8817;48.170;8.592;2023-06-10T13:46:08;5.10;;;4.80;;
17398;SDS011;8817;48.170;8.592;2023-06-10T13:48:35;5.13;;;4.82;;
17398;SDS011;8817;48.170;8.592;2023-06-10T13:51:02;5.00;;;4.70;;
17398;SDS011;8817;48.170;8.592;2023-06-10T13:53:29;4.85;;;4.55;;
17398;SDS011;8817;48.170;8.592;2023-06-10T13:55:56;4.68;;;4.47;;
17398;SDS011;8817;48.170;8.592;2023-06-10T13:58:23;5.20;;;4.90;;
17398;SDS011;8817;48.170;8.592;2023-06-10T14:00:51;6.03;;;4.80;;
17398;SDS011;8817;48.170;8.592;2023-06-10T14:03:18;4.95;;;4.65;;
17398;SDS011;8817;48.170;8.592;2023-06-10T14:05:45;4.90;;;4.60;;
17398;SDS011;8817;48.170;8.592;2023-06-10T14:08:12;5.15;;;4.80;;
17398;SDS011;8817;48.170;8.592;2023-06-10T14:10:39;5.20;;;4.70;;
17398;SDS011;8817;48.170;8.592;2023-06-10T14:13:06;5.20;;;4.70;;
17398;SDS011;8817;48.170;8.592;2023-06-10T14:15:33;4.95;;;4.75;;
17398;SDS011;8817;48.170;8.592;2023-06-10T14:18:03;5.30;;;5.00;;
17398;SDS011;8817;48.170;8.592;2023-06-10T14:20:30;5.30;;;5.00;;
17398;SDS011;8817;48.170;8.592;2023-06-10T14:22:57;5.63;;;5.13;;
17398;SDS011;8817;48.170;8.592;2023-06-10T14:25:24;8.05;;;5.65;;
17398;SDS011;8817;48.170;8.592;2023-06-10T14:27:51;5.97;;;5.57;;
17398;SDS011;8817;48.170;8.592;2023-06-10T14:30:18;5.82;;;5.43;;
17398;SDS011;8817;48.170;8.592;2023-06-10T14:32:45;5.68;;;5.28;;
17398;SDS011;8817;48.170;8.592;2023-06-10T14:35:14;5.78;;;5.38;;
17398;SDS011;8817;48.170;8.592;2023-06-10T14:37:41;5.75;;;5.30;;
17398;SDS011;8817;48.170;8.592;2023-06-10T14:40:08;6.22;;;5.72;;
17398;SDS011;8817;48.170;8.592;2023-06-10T14:42:35;5.97;;;5.57;;
17398;SDS011;8817;48.170;8.592;2023-06-10T14:45:02;5.63;;;5.32;;
17398;SDS011;8817;48.170;8.592;2023-06-10T14:47:30;6.50;;;6.00;;
17398;SDS011;8817;48.170;8.592;2023-06-10T14:49:57;6.20;;;5.75;;
17398;SDS011;8817;48.170;8.592;2023-06-10T14:52:25;5.88;;;5.30;;
17398;SDS011;8817;48.170;8.592;2023-06-10T14:54:52;6.15;;;5.53;;
17398;SDS011;8817;48.170;8.592;2023-06-10T14:57:19;5.85;;;5.13;;
17398;SDS011;8817;48.170;8.592;2023-06-10T14:59:46;6.00;;;5.60;;
17398;SDS011;8817;48.170;8.592;2023-06-10T15:02:13;5.60;;;5.20;;
17398;SDS011;8817;48.170;8.592;2023-06-10T15:04:40;5.32;;;5.00;;
17398;SDS011;8817;48.170;8.592;2023-06-10T15:07:07;5.22;;;4.93;;